sensor_id;sensor_type;location;lat;lon;timestamp;pressure;altitude;pressure_sealevel;temperature;humidity
81274;BME280;70753;47.908;11.274;2023-12-20T00:00:17;94789.91;;;7.97;42.94
81274;BME280;70753;47.908;11.274;2023-12-20T00:02:42;94787.78;;;7.99;43.23
81274;BME280;70753;47.908;11.274;2023-12-20T00:05:08;94789.91;;;7.97;43.47
81274;BME280;70753;47.908;11.274;2023-12-20T00:07:34;94784.88;;;8.11;43.04
81274;BME280;70753;47.908;11.274;2023-12-20T00:10:00;94785.16;;;8.09;43.17
81274;BME280;70753;47.908;11.274;2023-12-20T00:12:25;94786.19;;;8.18;42.91
81274;BME280;70753;47.908;11.274;2023-12-20T00:14:50;94775.03;;;8.16;43.06
81274;BME280;70753;47.908;11.274;2023-12-20T00:17:16;94780.88;;;8.18;43.24
81274;BME280;70753;47.908;11.274;2023-12-20T00:19:41;94772.66;;;8.15;43.38
81274;BME280;70753;47.908;11.274;2023-12-20T00:22:07;94774.00;;;8.22;43.47
81274;BME280;70753;47.908;11.274;2023-12-20T00:24:33;94776.13;;;8.25;43.94
81274;BME280;70753;47.908;11.274;2023-12-20T00:26:59;94774.53;;;8.09;44.22
81274;BME280;70753;47.908;11.274;2023-12-20T00:29:24;94768.16;;;8.00;44.51
81274;BME280;70753;47.908;11.274;2023-12-20T00:31:50;94770.25;;;8.03;44.21
81274;BME280;70753;47.908;11.274;2023-12-20T00:34:16;94768.16;;;7.70;45.36
81274;BME280;70753;47.908;11.274;2023-12-20T00:36:42;94759.63;;;8.03;44.79
81274;BME280;70753;47.908;11.274;2023-12-20T00:39:08;94758.59;;;7.99;45.11
81274;BME280;70753;47.908;11.274;2023-12-20T00:41:35;94752.78;;;7.87;45.67
81274;BME280;70753;47.908;11.274;2023-12-20T00:44:00;94751.16;;;7.76;46.13
81274;BME280;70753;47.908;11.274;2023-12-20T00:46:26;94742.41;;;7.60;46.90
81274;BME280;70753;47.908;11.274;2023-12-20T00:48:51;94744.50;;;7.43;48.18
81274;BME280;70753;47.908;11.274;2023-12-20T00:51:16;94742.41;;;7.81;46.74
81274;BME280;70753;47.908;11.274;2023-12-20T00:53:42;94739.50;;;7.92;46.40
81274;BME280;70753;47.908;11.274;2023-12-20T00:56:07;94741.34;;;7.97;46.40
81274;BME280;70753;47.908;11.274;2023-12-20T00:58:34;94743.72;;;7.88;46.61
81274;BME280;70753;47.908;11.274;2023-12-20T01:00:59;94737.91;;;8.26;45.84
81274;BME280;70753;47.908;11.274;2023-12-20T01:03:25;94746.38;;;8.28;46.09
81274;BME280;70753;47.908;11.274;2023-12-20T01:05:50;94738.13;;;8.10;46.08
81274;BME280;70753;47.908;11.274;2023-12-20T01:08:16;94745.31;;;8.19;46.24
81274;BME280;70753;47.908;11.274;2023-12-20T01:10:41;94742.13;;;8.32;46.19
81274;BME280;70753;47.908;11.274;2023-12-20T01:13:07;94743.16;;;8.21;46.60
81274;BME280;70753;47.908;11.274;2023-12-20T01:15:33;94735.22;;;8.16;46.49
81274;BME280;70753;47.908;11.274;2023-12-20T01:17:59;94725.94;;;8.09;46.70
81274;BME280;70753;47.908;11.274;2023-12-20T01:20:24;94723.00;;;8.15;46.89
81274;BME280;70753;47.908;11.274;2023-12-20T01:22:49;94724.63;;;7.76;47.64
81274;BME280;70753;47.908;11.274;2023-12-20T01:25:15;94724.34;;;7.93;47.47
81274;BME280;70753;47.908;11.274;2023-12-20T01:27:40;94731.78;;;7.75;47.99
81274;BME280;70753;47.908;11.274;2023-12-20T01:30:07;94731.00;;;7.85;47.71
81274;BME280;70753;47.908;11.274;2023-12-20T01:32:34;94729.66;;;7.62;48.51
81274;BME280;70753;47.908;11.274;2023-12-20T01:34:59;94735.50;;;7.85;48.32
81274;BME280;70753;47.908;11.274;2023-12-20T01:37:25;94731.28;;;7.94;47.54
81274;BME280;70753;47.908;11.274;2023-12-20T01:39:50;94725.72;;;7.70;47.99
81274;BME280;70753;47.908;11.274;2023-12-20T01:42:15;94729.97;;;7.81;47.96
81274;BME280;70753;47.908;11.274;2023-12-20T01:44:41;94724.09;;;7.34;49.01
81274;BME280;70753;47.908;11.274;2023-12-20T01:47:07;94711.91;;;7.78;48.08
81274;BME280;70753;47.908;11.274;2023-12-20T01:49:35;94720.59;;;7.13;50.38
81274;BME280;70753;47.908;11.274;2023-12-20T01:52:00;94697.56;;;7.24;50.34
81274;BME280;70753;47.908;11.274;2023-12-20T01:54:26;94701.84;;;7.75;48.80
81274;BME280;70753;47.908;11.274;2023-12-20T01:56:52;94694.09;;;8.04;47.55
81274;BME280;70753;47.908;11.274;2023-12-20T01:59:19;94692.53;;;7.52;49.58
81274;BME280;70753;47.908;11.274;2023-12-20T02:01:46;94687.50;;;7.26;50.25
81274;BME280;70753;47.908;11.274;2023-12-20T02:04:11;94687.22;;;7.12;50.84
81274;BME280;70753;47.908;11.274;2023-12-20T02:06:40;94686.44;;;7.42;50.03
81274;BME280;70753;47.908;11.274;2023-12-20T02:09:05;94681.13;;;7.22;50.94
81274;BME280;70753;47.908;11.274;2023-12-20T02:11:31;94680.09;;;7.38;50.82
81274;BME280;70753;47.908;11.274;2023-12-20T02:13:56;94685.38;;;7.33;50.52
81274;BME280;70753;47.908;11.274;2023-12-20T02:16:22;94675.56;;;7.28;51.22
81274;BME280;70753;47.908;11.274;2023-12-20T02:18:47;94673.94;;;7.07;51.19
81274;BME280;70753;47.908;11.274;2023-12-20T02:21:14;94677.69;;;7.06;51.57
81274;BME280;70753;47.908;11.274;2023-12-20T02:23:41;94665.75;;;7.19;51.15
81274;BME280;70753;47.908;11.274;2023-12-20T02:26:06;94663.91;;;7.24;51.43
81274;BME280;70753;47.908;11.274;2023-12-20T02:28:32;94668.16;;;7.35;51.36
81274;BME280;70753;47.908;11.274;2023-12-20T02:30:58;94656.69;;;6.79;52.27
81274;BME280;70753;47.908;11.274;2023-12-20T02:33:23;94652.50;;;7.29;51.17
81274;BME280;70753;47.908;11.274;2023-12-20T02:35:49;94645.06;;;7.66;50.62
81274;BME280;70753;47.908;11.274;2023-12-20T02:38:15;94643.22;;;7.41;50.75
81274;BME280;70753;47.908;11.274;2023-12-20T02:40:42;94638.69;;;7.77;49.69
81274;BME280;70753;47.908;11.274;2023-12-20T02:43:07;94649.34;;;7.32;50.78
81274;BME280;70753;47.908;11.274;2023-12-20T02:45:32;94636.06;;;7.37;50.66
81274;BME280;70753;47.908;11.274;2023-12-20T02:47:58;94636.31;;;7.50;49.89
81274;BME280;70753;47.908;11.274;2023-12-20T02:50:23;94641.38;;;7.57;50.37
81274;BME280;70753;47.908;11.274;2023-12-20T02:52:48;94635.50;;;7.75;50.12
81274;BME280;70753;47.908;11.274;2023-12-20T02:55:14;94635.00;;;7.58;50.67
81274;BME280;70753;47.908;11.274;2023-12-20T02:57:41;94630.19;;;7.65;50.47
81274;BME280;70753;47.908;11.274;2023-12-20T03:00:07;94632.03;;;7.85;49.85
81274;BME280;70753;47.908;11.274;2023-12-20T03:02:33;94629.13;;;7.76;50.28
81274;BME280;70753;47.908;11.274;2023-12-20T03:04:58;94629.41;;;7.64;51.10
81274;BME280;70753;47.908;11.274;2023-12-20T03:07:23;94631.00;;;7.70;51.10
81274;BME280;70753;47.908;11.274;2023-12-20T03:09:49;94636.06;;;7.47;51.67
81274;BME280;70753;47.908;11.274;2023-12-20T03:12:14;94632.06;;;7.74;51.02
81274;BME280;70753;47.908;11.274;2023-12-20T03:14:41;94633.13;;;7.68;51.27
81274;BME280;70753;47.908;11.274;2023-12-20T03:17:07;94634.13;;;7.93;51.14
81274;BME280;70753;47.908;11.274;2023-12-20T03:19:32;94637.34;;;7.80;51.42
81274;BME280;70753;47.908;11.274;2023-12-20T03:21:58;94647.47;;;7.57;52.26
81274;BME280;70753;47.908;11.274;2023-12-20T03:24:25;94630.22;;;7.55;52.50
81274;BME280;70753;47.908;11.274;2023-12-20T03:26:51;94635.75;;;7.73;52.23
81274;BME280;70753;47.908;11.274;2023-12-20T03:29:16;94629.34;;;7.95;52.32
81274;BME280;70753;47.908;11.274;2023-12-20T03:31:43;94632.63;;;7.51;54.57
81274;BME280;70753;47.908;11.274;2023-12-20T03:34:08;94633.94;;;7.49;54.88
81274;BME280;70753;47.908;11.274;2023-12-20T03:36:33;94649.81;;;7.79;55.40
81274;BME280;70753;47.908;11.274;2023-12-20T03:38:59;94650.91;;;7.53;56.84
81274;BME280;70753;47.908;11.274;2023-12-20T03:41:24;94651.44;;;7.70;56.74
81274;BME280;70753;47.908;11.274;2023-12-20T03:43:50;94650.03;;;7.93;56.89
81274;BME280;70753;47.908;11.274;2023-12-20T03:46:15;94650.28;;;8.01;56.88
81274;BME280;70753;47.908;11.274;2023-12-20T03:48:42;94663.03;;;8.04;57.08
81274;BME280;70753;47.908;11.274;2023-12-20T03:51:07;94654.78;;;8.11;57.36
81274;BME280;70753;47.908;11.274;2023-12-20T03:53:33;94642.66;;;7.85;58.82
81274;BME280;70753;47.908;11.274;2023-12-20T03:55:59;94642.34;;;8.01;59.00
81274;BME280;70753;47.908;11.274;2023-12-20T03:58:24;94651.16;;;7.77;60.64
81274;BME280;70753;47.908;11.274;2023-12-20T04:00:49;94645.56;;;7.78;61.05
81274;BME280;70753;47.908;11.274;2023-12-20T04:03:15;94658.06;;;7.47;62.88
81274;BME280;70753;47.908;11.274;2023-12-20T04:05:42;94664.97;;;7.28;63.74
81274;BME280;70753;47.908;11.274;2023-12-20T04:08:07;94659.91;;;7.72;62.47
81274;BME280;70753;47.908;11.274;2023-12-20T04:10:33;94665.50;;;7.70;62.59
81274;BME280;70753;47.908;11.274;2023-12-20T04:12:58;94665.75;;;7.79;62.63
81274;BME280;70753;47.908;11.274;2023-12-20T04:15:24;94656.22;;;7.73;62.82
81274;BME280;70753;47.908;11.274;2023-12-20T04:17:50;94666.78;;;7.93;62.39
81274;BME280;70753;47.908;11.274;2023-12-20T04:20:15;94674.72;;;8.08;62.60
81274;BME280;70753;47.908;11.274;2023-12-20T04:22:42;94680.59;;;7.90;63.70
81274;BME280;70753;47.908;11.274;2023-12-20T04:25:09;94685.66;;;7.82;64.60
81274;BME280;70753;47.908;11.274;2023-12-20T04:27:34;94680.06;;;7.78;65.33
81274;BME280;70753;47.908;11.274;2023-12-20T04:30:00;94679.25;;;7.93;65.19
81274;BME280;70753;47.908;11.274;2023-12-20T04:32:25;94683.28;;;7.45;67.77
81274;BME280;70753;47.908;11.274;2023-12-20T04:34:50;94681.16;;;7.42;69.21
81274;BME280;70753;47.908;11.274;2023-12-20T04:37:16;94670.50;;;7.82;67.65
81274;BME280;70753;47.908;11.274;2023-12-20T04:39:42;94675.31;;;7.40;69.81
81274;BME280;70753;47.908;11.274;2023-12-20T04:42:08;94666.28;;;7.66;68.77
81274;BME280;70753;47.908;11.274;2023-12-20T04:44:33;94676.34;;;7.39;70.01
81274;BME280;70753;47.908;11.274;2023-12-20T04:46:58;94675.81;;;7.07;71.25
81274;BME280;70753;47.908;11.274;2023-12-20T04:49:24;94673.16;;;7.12;71.25
81274;BME280;70753;47.908;11.274;2023-12-20T04:51:49;94679.28;;;7.17;71.43
81274;BME280;70753;47.908;11.274;2023-12-20T04:54:15;94683.28;;;7.30;70.28
81274;BME280;70753;47.908;11.274;2023-12-20T04:56:42;94675.84;;;7.32;70.18
81274;BME280;70753;47.908;11.274;2023-12-20T04:59:07;94681.66;;;7.39;69.59
81274;BME280;70753;47.908;11.274;2023-12-20T05:01:32;94683.25;;;7.10;70.29
81274;BME280;70753;47.908;11.274;2023-12-20T05:03:58;94685.66;;;7.36;70.17
81274;BME280;70753;47.908;11.274;2023-12-20T05:06:23;94671.06;;;7.34;69.39
81274;BME280;70753;47.908;11.274;2023-12-20T05:08:49;94683.25;;;7.35;69.38
81274;BME280;70753;47.908;11.274;2023-12-20T05:11:14;94685.41;;;7.28;69.41
81274;BME280;70753;47.908;11.274;2023-12-20T05:13:41;94706.00;;;7.01;69.98
81274;BME280;70753;47.908;11.274;2023-12-20T05:16:06;94702.31;;;7.12;70.18
81274;BME280;70753;47.908;11.274;2023-12-20T05:18:32;94690.16;;;7.11;70.48
81274;BME280;70753;47.908;11.274;2023-12-20T05:20:58;94694.91;;;7.24;69.49
81274;BME280;70753;47.908;11.274;2023-12-20T05:23:23;94702.06;;;7.08;70.27
81274;BME280;70753;47.908;11.274;2023-12-20T05:25:48;94717.69;;;7.00;70.90
81274;BME280;70753;47.908;11.274;2023-12-20T05:28:14;94702.88;;;7.09;70.62
81274;BME280;70753;47.908;11.274;2023-12-20T05:30:42;94716.09;;;7.14;70.69
81274;BME280;70753;47.908;11.274;2023-12-20T05:33:07;94729.06;;;7.05;72.57
81274;BME280;70753;47.908;11.274;2023-12-20T05:35:33;94726.66;;;6.88;72.26
81274;BME280;70753;47.908;11.274;2023-12-20T05:37:58;94721.63;;;6.92;73.67
81274;BME280;70753;47.908;11.274;2023-12-20T05:40:24;94739.88;;;6.78;73.87
81274;BME280;70753;47.908;11.274;2023-12-20T05:42:49;94733.22;;;6.71;74.67
81274;BME280;70753;47.908;11.274;2023-12-20T05:45:16;94738.94;;;6.48;74.33
81274;BME280;70753;47.908;11.274;2023-12-20T05:47:42;94739.75;;;6.48;74.94
81274;BME280;70753;47.908;11.274;2023-12-20T05:50:08;94746.31;;;6.41;75.26
81274;BME280;70753;47.908;11.274;2023-12-20T05:52:33;94745.66;;;6.70;73.70
81274;BME280;70753;47.908;11.274;2023-12-20T05:54:59;94747.75;;;6.63;73.33
81274;BME280;70753;47.908;11.274;2023-12-20T05:57:25;94749.38;;;6.74;73.28
81274;BME280;70753;47.908;11.274;2023-12-20T05:59:50;94755.72;;;6.68;72.79
81274;BME280;70753;47.908;11.274;2023-12-20T06:02:15;94756.66;;;6.47;72.96
81274;BME280;70753;47.908;11.274;2023-12-20T06:04:43;94762.53;;;6.59;74.49
81274;BME280;70753;47.908;11.274;2023-12-20T06:07:08;94768.38;;;6.56;73.94
81274;BME280;70753;47.908;11.274;2023-12-20T06:09:33;94770.75;;;6.58;73.86
81274;BME280;70753;47.908;11.274;2023-12-20T06:11:59;94782.16;;;6.58;72.64
81274;BME280;70753;47.908;11.274;2023-12-20T06:14:24;94779.81;;;6.67;73.13
81274;BME280;70753;47.908;11.274;2023-12-20T06:16:50;94778.44;;;6.54;73.01
81274;BME280;70753;47.908;11.274;2023-12-20T06:19:16;94788.88;;;6.29;74.33
81274;BME280;70753;47.908;11.274;2023-12-20T06:21:43;94799.56;;;6.49;72.90
81274;BME280;70753;47.908;11.274;2023-12-20T06:24:08;94796.34;;;6.37;73.60
81274;BME280;70753;47.908;11.274;2023-12-20T06:26:34;94801.03;;;6.30;74.01
81274;BME280;70753;47.908;11.274;2023-12-20T06:28:59;94792.50;;;6.18;74.39
81274;BME280;70753;47.908;11.274;2023-12-20T06:31:24;94804.25;;;6.32;74.53
81274;BME280;70753;47.908;11.274;2023-12-20T06:33:50;94805.69;;;6.13;73.68
81274;BME280;70753;47.908;11.274;2023-12-20T06:36:15;94810.94;;;6.03;73.98
81274;BME280;70753;47.908;11.274;2023-12-20T06:38:42;94807.31;;;6.14;74.73
81274;BME280;70753;47.908;11.274;2023-12-20T06:41:07;94824.38;;;6.38;73.07
81274;BME280;70753;47.908;11.274;2023-12-20T06:43:33;94824.88;;;6.30;73.70
81274;BME280;70753;47.908;11.274;2023-12-20T06:45:58;94833.41;;;6.37;72.95
81274;BME280;70753;47.908;11.274;2023-12-20T06:48:23;94837.31;;;6.30;72.47
81274;BME280;70753;47.908;11.274;2023-12-20T06:50:49;94838.47;;;6.07;73.06
81274;BME280;70753;47.908;11.274;2023-12-20T06:53:14;94839.84;;;6.14;72.89
81274;BME280;70753;47.908;11.274;2023-12-20T06:55:41;94854.75;;;5.94;73.38
81274;BME280;70753;47.908;11.274;2023-12-20T06:58:06;94860.72;;;6.11;73.59
81274;BME280;70753;47.908;11.274;2023-12-20T07:00:33;94858.47;;;6.30;73.37
81274;BME280;70753;47.908;11.274;2023-12-20T07:02:58;94866.19;;;6.36;72.54
81274;BME280;70753;47.908;11.274;2023-12-20T07:05:24;94866.84;;;6.16;72.51
81274;BME280;70753;47.908;11.274;2023-12-20T07:07:49;94876.13;;;5.87;73.46
81274;BME280;70753;47.908;11.274;2023-12-20T07:10:15;94869.53;;;5.90;73.97
81274;BME280;70753;47.908;11.274;2023-12-20T07:12:42;94875.50;;;6.07;73.44
81274;BME280;70753;47.908;11.274;2023-12-20T07:15:08;94875.16;;;5.72;74.38
81274;BME280;70753;47.908;11.274;2023-12-20T07:17:33;94874.06;;;5.68;74.37
81274;BME280;70753;47.908;11.274;2023-12-20T07:19:59;94872.59;;;5.55;74.69
81274;BME280;70753;47.908;11.274;2023-12-20T07:22:25;94882.44;;;5.60;74.28
81274;BME280;70753;47.908;11.274;2023-12-20T07:24:50;94882.88;;;5.52;74.15
81274;BME280;70753;47.908;11.274;2023-12-20T07:27:15;94885.28;;;5.53;74.74
81274;BME280;70753;47.908;11.274;2023-12-20T07:29:42;94885.47;;;5.47;74.76
81274;BME280;70753;47.908;11.274;2023-12-20T07:32:10;94884.38;;;5.42;75.27
81274;BME280;70753;47.908;11.274;2023-12-20T07:34:35;94887.22;;;5.14;75.78
81274;BME280;70753;47.908;11.274;2023-12-20T07:37:01;94892.75;;;5.13;75.75
81274;BME280;70753;47.908;11.274;2023-12-20T07:39:26;94899.41;;;4.99;75.73
81274;BME280;70753;47.908;11.274;2023-12-20T07:41:51;94914.19;;;5.16;75.26
81274;BME280;70753;47.908;11.274;2023-12-20T07:44:17;94900.91;;;5.33;74.31
81274;BME280;70753;47.908;11.274;2023-12-20T07:46:44;94902.53;;;5.61;74.26
81274;BME280;70753;47.908;11.274;2023-12-20T07:49:09;94894.25;;;5.52;73.87
81274;BME280;70753;47.908;11.274;2023-12-20T07:51:35;94889.47;;;5.49;72.97
81274;BME280;70753;47.908;11.274;2023-12-20T07:54:00;94892.13;;;5.27;73.93
81274;BME280;70753;47.908;11.274;2023-12-20T07:56:26;94894.63;;;5.39;73.88
81274;BME280;70753;47.908;11.274;2023-12-20T07:58:51;94878.53;;;5.40;73.72
81274;BME280;70753;47.908;11.274;2023-12-20T08:01:17;94880.13;;;5.41;73.22
81274;BME280;70753;47.908;11.274;2023-12-20T08:03:44;94888.81;;;5.64;73.33
81274;BME280;70753;47.908;11.274;2023-12-20T08:06:10;94895.72;;;5.91;71.82
81274;BME280;70753;47.908;11.274;2023-12-20T08:08:35;94903.66;;;6.18;71.35
81274;BME280;70753;47.908;11.274;2023-12-20T08:11:00;94902.44;;;5.99;71.27
81274;BME280;70753;47.908;11.274;2023-12-20T08:13:26;94905.06;;;5.99;72.04
81274;BME280;70753;47.908;11.274;2023-12-20T08:15:51;94908.84;;;6.08;71.68
81274;BME280;70753;47.908;11.274;2023-12-20T08:18:17;94905.34;;;6.29;70.84
81274;BME280;70753;47.908;11.274;2023-12-20T08:20:44;94916.91;;;5.91;71.31
81274;BME280;70753;47.908;11.274;2023-12-20T08:23:09;94911.88;;;5.95;72.20
81274;BME280;70753;47.908;11.274;2023-12-20T08:25:35;94916.75;;;6.03;71.67
81274;BME280;70753;47.908;11.274;2023-12-20T08:28:01;94929.13;;;6.24;71.43
81274;BME280;70753;47.908;11.274;2023-12-20T08:30:26;94924.78;;;6.13;71.61
81274;BME280;70753;47.908;11.274;2023-12-20T08:32:51;94930.41;;;5.95;71.69
81274;BME280;70753;47.908;11.274;2023-12-20T08:35:17;94925.66;;;5.70;73.18
81274;BME280;70753;47.908;11.274;2023-12-20T08:37:44;94931.06;;;5.59;73.87
81274;BME280;70753;47.908;11.274;2023-12-20T08:40:10;94932.31;;;5.51;73.67
81274;BME280;70753;47.908;11.274;2023-12-20T08:42:35;94931.78;;;5.76;73.79
81274;BME280;70753;47.908;11.274;2023-12-20T08:45:01;94935.94;;;5.67;73.15
81274;BME280;70753;47.908;11.274;2023-12-20T08:47:26;94927.81;;;5.52;74.24
81274;BME280;70753;47.908;11.274;2023-12-20T08:49:52;94934.88;;;5.68;73.37
81274;BME280;70753;47.908;11.274;2023-12-20T08:52:18;94936.84;;;5.77;72.89
81274;BME280;70753;47.908;11.274;2023-12-20T08:54:44;94933.78;;;5.64;74.04
81274;BME280;70753;47.908;11.274;2023-12-20T08:57:10;94933.84;;;5.95;72.79
81274;BME280;70753;47.908;11.274;2023-12-20T08:59:35;94923.44;;;5.84;72.50
81274;BME280;70753;47.908;11.274;2023-12-20T09:02:01;94925.56;;;5.87;72.72
81274;BME280;70753;47.908;11.274;2023-12-20T09:04:26;94928.75;;;5.84;72.45
81274;BME280;70753;47.908;11.274;2023-12-20T09:06:51;94923.19;;;5.64;73.36
81274;BME280;70753;47.908;11.274;2023-12-20T09:09:17;94927.47;;;5.70;72.91
81274;BME280;70753;47.908;11.274;2023-12-20T09:11:43;94928.59;;;5.74;72.72
81274;BME280;70753;47.908;11.274;2023-12-20T09:14:09;94924.72;;;6.08;71.90
81274;BME280;70753;47.908;11.274;2023-12-20T09:16:34;94930.63;;;6.15;71.60
81274;BME280;70753;47.908;11.274;2023-12-20T09:18:59;94922.66;;;6.15;71.71
81274;BME280;70753;47.908;11.274;2023-12-20T09:21:25;94916.97;;;5.96;71.74
81274;BME280;70753;47.908;11.274;2023-12-20T09:23:50;94922.44;;;5.90;72.51
81274;BME280;70753;47.908;11.274;2023-12-20T09:26:16;94931.53;;;5.99;72.63
81274;BME280;70753;47.908;11.274;2023-12-20T09:28:43;94926.44;;;5.71;73.26
81274;BME280;70753;47.908;11.274;2023-12-20T09:31:09;94924.81;;;5.65;73.36
81274;BME280;70753;47.908;11.274;2023-12-20T09:33:34;94929.69;;;5.78;72.79
81274;BME280;70753;47.908;11.274;2023-12-20T09:36:00;94924.38;;;5.78;73.29
81274;BME280;70753;47.908;11.274;2023-12-20T09:38:26;94929.19;;;6.02;72.41
81274;BME280;70753;47.908;11.274;2023-12-20T09:40:51;94934.41;;;5.97;72.72
81274;BME280;70753;47.908;11.274;2023-12-20T09:43:19;94941.25;;;6.20;71.82
81274;BME280;70753;47.908;11.274;2023-12-20T09:45:47;94946.69;;;6.35;71.27
81274;BME280;70753;47.908;11.274;2023-12-20T09:48:17;94943.28;;;6.40;70.88
81274;BME280;70753;47.908;11.274;2023-12-20T09:50:43;94938.69;;;6.30;71.20
81274;BME280;70753;47.908;11.274;2023-12-20T09:53:12;94933.25;;;6.47;71.12
81274;BME280;70753;47.908;11.274;2023-12-20T09:55:41;94935.81;;;6.05;72.24
81274;BME280;70753;47.908;11.274;2023-12-20T09:58:06;94937.69;;;6.36;70.40
81274;BME280;70753;47.908;11.274;2023-12-20T10:00:32;94937.78;;;6.46;70.83
81274;BME280;70753;47.908;11.274;2023-12-20T10:03:00;94924.13;;;6.64;69.89
81274;BME280;70753;47.908;11.274;2023-12-20T10:05:27;94921.31;;;6.76;69.27
81274;BME280;70753;47.908;11.274;2023-12-20T10:07:53;94920.44;;;6.65;70.69
81274;BME280;70753;47.908;11.274;2023-12-20T10:10:18;94911.75;;;6.75;70.16
81274;BME280;70753;47.908;11.274;2023-12-20T10:13:01;94904.88;;;6.42;71.93
81274;BME280;70753;47.908;11.274;2023-12-20T10:15:26;94903.91;;;6.48;70.95
81274;BME280;70753;47.908;11.274;2023-12-20T10:17:52;94904.97;;;6.52;70.46
81274;BME280;70753;47.908;11.274;2023-12-20T10:20:18;94894.78;;;6.71;70.15
81274;BME280;70753;47.908;11.274;2023-12-20T10:22:44;94891.09;;;6.72;71.18
81274;BME280;70753;47.908;11.274;2023-12-20T10:25:09;94898.31;;;6.86;70.13
81274;BME280;70753;47.908;11.274;2023-12-20T10:27:34;94892.44;;;6.79;69.88
81274;BME280;70753;47.908;11.274;2023-12-20T10:30:00;94888.03;;;6.95;70.18
81274;BME280;70753;47.908;11.274;2023-12-20T10:32:26;94880.81;;;6.85;69.79
81274;BME280;70753;47.908;11.274;2023-12-20T10:34:52;94883.53;;;7.01;70.62
81274;BME280;70753;47.908;11.274;2023-12-20T10:37:19;94884.34;;;7.01;69.54
81274;BME280;70753;47.908;11.274;2023-12-20T10:39:49;94882.09;;;7.35;69.28
81274;BME280;70753;47.908;11.274;2023-12-20T10:42:15;94872.56;;;7.39;68.41
81274;BME280;70753;47.908;11.274;2023-12-20T10:44:42;94867.19;;;7.14;69.15
81274;BME280;70753;47.908;11.274;2023-12-20T10:47:09;94862.03;;;7.49;69.05
81274;BME280;70753;47.908;11.274;2023-12-20T10:49:36;94870.28;;;7.67;67.96
81274;BME280;70753;47.908;11.274;2023-12-20T10:52:02;94863.16;;;7.83;68.34
81274;BME280;70753;47.908;11.274;2023-12-20T10:54:30;94868.88;;;7.40;68.28
81274;BME280;70753;47.908;11.274;2023-12-20T10:56:57;94853.53;;;7.47;68.93
81274;BME280;70753;47.908;11.274;2023-12-20T10:59:23;94855.16;;;7.58;68.20
81274;BME280;70753;47.908;11.274;2023-12-20T11:01:50;94846.84;;;7.29;68.21
81274;BME280;70753;47.908;11.274;2023-12-20T11:04:18;94843.16;;;7.40;69.09
81274;BME280;70753;47.908;11.274;2023-12-20T11:06:47;94845.84;;;7.55;69.12
81274;BME280;70753;47.908;11.274;2023-12-20T11:09:19;94848.25;;;7.62;68.05
81274;BME280;70753;47.908;11.274;2023-12-20T11:11:58;94842.88;;;7.37;67.84
81274;BME280;70753;47.908;11.274;2023-12-20T11:14:39;94842.81;;;7.22;68.71
81274;BME280;70753;47.908;11.274;2023-12-20T11:17:06;94838.63;;;7.31;68.37
81274;BME280;70753;47.908;11.274;2023-12-20T11:19:32;94840.78;;;7.44;68.49
81274;BME280;70753;47.908;11.274;2023-12-20T11:21:57;94841.28;;;7.31;68.81
81274;BME280;70753;47.908;11.274;2023-12-20T11:24:22;94845.03;;;7.45;67.84
81274;BME280;70753;47.908;11.274;2023-12-20T11:26:48;94840.84;;;7.64;67.46
81274;BME280;70753;47.908;11.274;2023-12-20T11:29:31;94848.47;;;7.40;67.93
81274;BME280;70753;47.908;11.274;2023-12-20T11:31:57;94843.13;;;7.35;68.38
81274;BME280;70753;47.908;11.274;2023-12-20T11:34:27;94835.75;;;7.52;68.67
81274;BME280;70753;47.908;11.274;2023-12-20T11:36:57;94847.47;;;7.61;67.78
81274;BME280;70753;47.908;11.274;2023-12-20T11:39:22;94840.03;;;7.53;68.54
81274;BME280;70753;47.908;11.274;2023-12-20T11:41:48;94841.91;;;7.73;66.95
81274;BME280;70753;47.908;11.274;2023-12-20T11:44:15;94836.06;;;7.66;67.40
81274;BME280;70753;47.908;11.274;2023-12-20T11:46:44;94838.38;;;7.47;67.88
81274;BME280;70753;47.908;11.274;2023-12-20T11:49:09;94835.81;;;7.72;67.52
81274;BME280;70753;47.908;11.274;2023-12-20T11:51:40;94830.22;;;7.74;67.78
81274;BME280;70753;47.908;11.274;2023-12-20T11:54:06;94827.59;;;7.84;66.47
81274;BME280;70753;47.908;11.274;2023-12-20T11:56:31;94839.75;;;7.65;67.95
81274;BME280;70753;47.908;11.274;2023-12-20T11:58:57;94837.06;;;7.50;68.90
81274;BME280;70753;47.908;11.274;2023-12-20T12:01:22;94832.06;;;7.53;69.19
81274;BME280;70753;47.908;11.274;2023-12-20T12:04:02;94842.81;;;7.17;69.87
81274;BME280;70753;47.908;11.274;2023-12-20T12:06:27;94837.34;;;6.76;71.82
81274;BME280;70753;47.908;11.274;2023-12-20T12:08:54;94837.44;;;6.96;70.69
81274;BME280;70753;47.908;11.274;2023-12-20T12:11:19;94848.50;;;6.83;71.57
81274;BME280;70753;47.908;11.274;2023-12-20T12:13:45;94829.50;;;7.02;71.23
81274;BME280;70753;47.908;11.274;2023-12-20T12:16:10;94832.72;;;7.14;71.22
81274;BME280;70753;47.908;11.274;2023-12-20T12:18:36;94828.00;;;7.31;70.01
81274;BME280;70753;47.908;11.274;2023-12-20T12:21:04;94820.66;;;7.63;69.76
81274;BME280;70753;47.908;11.274;2023-12-20T12:23:29;94824.38;;;7.62;68.90
81274;BME280;70753;47.908;11.274;2023-12-20T12:25:55;94821.47;;;7.53;69.71
81274;BME280;70753;47.908;11.274;2023-12-20T12:28:21;94826.97;;;7.37;69.87
81274;BME280;70753;47.908;11.274;2023-12-20T12:30:56;94818.50;;;7.50;69.36
81274;BME280;70753;47.908;11.274;2023-12-20T12:33:21;94810.59;;;7.60;69.56
81274;BME280;70753;47.908;11.274;2023-12-20T12:35:47;94807.41;;;7.78;68.34
81274;BME280;70753;47.908;11.274;2023-12-20T12:38:14;94810.59;;;7.65;68.53
81274;BME280;70753;47.908;11.274;2023-12-20T12:40:40;94810.56;;;7.50;69.17
81274;BME280;70753;47.908;11.274;2023-12-20T12:43:05;94805.28;;;7.70;68.94
81274;BME280;70753;47.908;11.274;2023-12-20T12:45:30;94793.34;;;7.78;68.10
81274;BME280;70753;47.908;11.274;2023-12-20T12:47:56;94801.06;;;7.74;67.74
81274;BME280;70753;47.908;11.274;2023-12-20T12:50:21;94796.72;;;7.23;68.70
81274;BME280;70753;47.908;11.274;2023-12-20T12:52:46;94790.94;;;7.46;67.84